Terminal Aerodrome Forecast
Issued by NWS

Home | Current Version | Previous Version | Text Only | Print | Product List | Glossary On
Versions: 1 2 3 4 5 6 7 8 9 10 11 12 13
070
FTUS44 KMAF 251720
TAFINK
TAF
KINK 251720Z 2518/2618 26024G32KT P6SM BKN250
     FM252000 26030G42KT P6SM SCT250
     FM260100 26018G27KT P6SM FEW250
     FM260600 30015G25KT P6SM SCT100=

USA.gov is the U.S. government's official web portal to all federal, state and local government web resources and services.